createdAt,value
2018-12-29T00:00:19.890Z,1008.88
2018-12-29T00:01:29.985Z,1008.81
2018-12-29T00:02:39.801Z,1008.87
2018-12-29T00:03:49.879Z,1008.91
2018-12-29T00:04:59.954Z,1008.9
2018-12-29T00:06:10.270Z,1008.89
2018-12-29T00:07:20.367Z,1008.91
2018-12-29T00:08:30.442Z,1008.97
2018-12-29T00:09:40.510Z,1008.91
2018-12-29T00:10:50.602Z,1008.98
2018-12-29T00:12:01.026Z,1008.98
2018-12-29T00:13:10.837Z,1009.04
2018-12-29T00:14:20.668Z,1008.97
2018-12-29T00:15:30.751Z,1008.99
2018-12-29T00:16:40.560Z,1008.98
2018-12-29T00:17:50.381Z,1008.94
2018-12-29T00:19:00.452Z,1008.98
2018-12-29T00:20:10.562Z,1008.94
2018-12-29T00:21:20.410Z,1009.01
2018-12-29T00:22:30.517Z,1009.03
2018-12-29T00:23:40.582Z,1009.06
2018-12-29T00:24:50.686Z,1009.07
2018-12-29T00:26:00.815Z,1009.12
2018-12-29T00:27:10.887Z,1009.06
2018-12-29T00:28:20.708Z,1009.12
2018-12-29T00:29:30.762Z,1009.13
2018-12-29T00:30:40.898Z,1009.13
2018-12-29T00:31:50.747Z,1009.24
2018-12-29T00:33:02.548Z,1009.14
2018-12-29T00:34:12.675Z,1009.15
2018-12-29T00:35:22.770Z,1009.18
2018-12-29T00:36:32.850Z,1009.17
2018-12-29T00:37:42.933Z,1009.16
2018-12-29T00:38:52.748Z,1009.14
2018-12-29T00:40:02.829Z,1009.2
2018-12-29T00:41:12.664Z,1009.19
2018-12-29T00:42:22.715Z,1009.19
2018-12-29T00:43:32.792Z,1009.18
2018-12-29T00:44:42.864Z,1009.19
2018-12-29T00:45:52.964Z,1009.23
2018-12-29T00:47:03.115Z,1009.19
2018-12-29T00:48:13.184Z,1009.2
2018-12-29T00:49:23.022Z,1009.13
2018-12-29T00:50:33.097Z,1009.21
2018-12-29T00:51:43.178Z,1009.14
2018-12-29T00:52:53.242Z,1009.12
2018-12-29T00:54:03.154Z,1009.12
2018-12-29T00:55:13.241Z,1009.15
2018-12-29T00:56:23.316Z,1009.22
2018-12-29T00:57:33.144Z,1009.13
2018-12-29T00:58:43.233Z,1009.19
2018-12-29T00:59:53.893Z,1009.17
2018-12-29T01:01:04.391Z,1009.23
2018-12-29T01:02:15.512Z,1009.22
2018-12-29T01:03:25.601Z,1009.19
2018-12-29T01:04:35.666Z,1009.23
2018-12-29T01:05:45.757Z,1009.2
2018-12-29T01:06:55.847Z,1009.22
2018-12-29T01:08:05.933Z,1009.21
2018-12-29T01:09:16.027Z,1009.29
2018-12-29T01:10:26.083Z,1009.28
2018-12-29T01:11:36.122Z,1009.26
2018-12-29T01:12:45.957Z,1009.25
2018-12-29T01:13:55.783Z,1009.29
2018-12-29T01:15:10.005Z,1009.28
2018-12-29T01:16:20.138Z,1009.36
2018-12-29T01:17:30.209Z,1009.32
2018-12-29T01:18:40.277Z,1009.33
2018-12-29T01:19:50.356Z,1009.33
2018-12-29T01:21:00.423Z,1009.29
2018-12-29T01:22:10.219Z,1009.36
2018-12-29T01:23:20.273Z,1009.25
2018-12-29T01:24:30.313Z,1009.32
2018-12-29T01:25:40.428Z,1009.3
2018-12-29T01:26:50.520Z,1009.35
2018-12-29T01:28:00.743Z,1009.32
2018-12-29T01:29:10.838Z,1009.34
2018-12-29T01:30:20.938Z,1009.31
2018-12-29T01:31:31.001Z,1009.3
2018-12-29T01:32:40.825Z,1009.33
2018-12-29T01:33:50.707Z,1009.37
2018-12-29T01:35:00.512Z,1009.33
2018-12-29T01:36:10.584Z,1009.34
2018-12-29T01:37:20.759Z,1009.31
2018-12-29T01:38:30.843Z,1009.3
2018-12-29T01:39:40.664Z,1009.34
2018-12-29T01:40:50.753Z,1009.33
2018-12-29T01:42:00.856Z,1009.34
2018-12-29T01:43:10.662Z,1009.39
2018-12-29T01:44:20.723Z,1009.33
2018-12-29T01:45:30.798Z,1009.33
2018-12-29T01:46:40.585Z,1009.36
2018-12-29T01:47:50.666Z,1009.39
2018-12-29T01:49:01.720Z,1009.33
2018-12-29T01:50:11.584Z,1009.34
2018-12-29T01:51:21.655Z,1009.38
2018-12-29T01:52:31.733Z,1009.35
2018-12-29T01:53:41.794Z,1009.42
2018-12-29T01:54:51.863Z,1009.47
2018-12-29T01:56:01.977Z,1009.53
2018-12-29T01:57:11.786Z,1009.53
2018-12-29T01:58:21.879Z,1009.49
2018-12-29T01:59:31.933Z,1009.53
2018-12-29T02:00:42.017Z,1009.45
2018-12-29T02:01:52.084Z,1009.52
2018-12-29T02:03:02.164Z,1009.51
2018-12-29T02:04:12.356Z,1009.56
2018-12-29T02:05:22.453Z,1009.53
2018-12-29T02:06:32.585Z,1009.51
2018-12-29T02:07:42.466Z,1009.48
2018-12-29T02:08:52.548Z,1009.46
2018-12-29T02:10:02.622Z,1009.47
2018-12-29T02:11:12.697Z,1009.48
2018-12-29T02:12:22.791Z,1009.49
2018-12-29T02:13:32.925Z,1009.48
2018-12-29T02:14:43.006Z,1009.52
2018-12-29T02:15:53.094Z,1009.5
2018-12-29T02:17:02.914Z,1009.51
2018-12-29T02:18:13.000Z,1009.5
2018-12-29T02:19:23.071Z,1009.5
2018-12-29T02:20:33.164Z,1009.49
2018-12-29T02:21:43.226Z,1009.54
2018-12-29T02:22:53.279Z,1009.55
2018-12-29T02:24:03.416Z,1009.51
2018-12-29T02:25:13.471Z,1009.49
2018-12-29T02:26:23.529Z,1009.53
2018-12-29T02:27:33.590Z,1009.53
2018-12-29T02:28:43.394Z,1009.54
2018-12-29T02:29:53.239Z,1009.49
2018-12-29T02:31:03.266Z,1009.51
2018-12-29T02:32:13.356Z,1009.58
2018-12-29T02:33:23.181Z,1009.51
2018-12-29T02:34:33.275Z,1009.56
2018-12-29T02:35:43.347Z,1009.56
2018-12-29T02:36:53.166Z,1009.54
2018-12-29T02:38:03.298Z,1009.51
2018-12-29T02:39:13.418Z,1009.57
2018-12-29T02:40:23.490Z,1009.52
2018-12-29T02:41:33.576Z,1009.54
2018-12-29T02:42:43.644Z,1009.54
2018-12-29T02:43:53.718Z,1009.49
2018-12-29T02:45:03.777Z,1009.47
2018-12-29T02:46:13.597Z,1009.5
2018-12-29T02:47:23.690Z,1009.52
2018-12-29T02:48:33.764Z,1009.43
2018-12-29T02:49:43.854Z,1009.41
2018-12-29T02:50:53.922Z,1009.42
2018-12-29T02:52:03.993Z,1009.36
2018-12-29T02:53:13.808Z,1009.39
2018-12-29T02:54:23.880Z,1009.41
2018-12-29T02:55:33.982Z,1009.36
2018-12-29T02:56:44.056Z,1009.37
2018-12-29T02:57:53.881Z,1009.38
2018-12-29T02:59:03.967Z,1009.36
2018-12-29T03:00:13.878Z,1009.38
2018-12-29T03:01:24.406Z,1009.38
2018-12-29T03:02:34.477Z,1009.33
2018-12-29T03:34:59.240Z,1009.38
2018-12-29T03:36:09.387Z,1009.4
2018-12-29T03:37:18.993Z,1009.39
2018-12-29T03:38:28.818Z,1009.4
2018-12-29T03:39:38.607Z,1009.42
2018-12-29T03:40:48.690Z,1009.41
2018-12-29T03:41:58.752Z,1009.45
2018-12-29T03:43:08.960Z,1009.44
2018-12-29T03:44:19.036Z,1009.46
2018-12-29T03:45:29.119Z,1009.47
2018-12-29T03:46:39.234Z,1009.48
2018-12-29T03:47:49.289Z,1009.48
2018-12-29T03:48:59.355Z,1009.51
2018-12-29T03:50:09.170Z,1009.45
2018-12-29T03:51:19.239Z,1009.49
2018-12-29T03:52:29.316Z,1009.52
2018-12-29T03:53:39.368Z,1009.48
2018-12-29T03:54:49.433Z,1009.48
2018-12-29T03:55:59.499Z,1009.46
2018-12-29T03:57:08.845Z,1009.49
2018-12-29T03:58:18.931Z,1009.49
2018-12-29T03:59:28.993Z,1009.54
2018-12-29T04:00:39.158Z,1009.51
2018-12-29T04:01:49.212Z,1009.43
2018-12-29T04:02:59.283Z,1009.52
2018-12-29T04:04:09.360Z,1009.53
2018-12-29T04:05:19.538Z,1009.53
2018-12-29T04:06:29.353Z,1009.54
2018-12-29T04:07:38.923Z,1009.49
2018-12-29T04:08:49.003Z,1009.56
2018-12-29T04:09:59.126Z,1009.58
2018-12-29T04:11:09.381Z,1009.55
2018-12-29T04:12:19.446Z,1009.59
2018-12-29T04:13:29.517Z,1009.6
2018-12-29T04:14:39.657Z,1009.64
2018-12-29T04:15:57.602Z,1009.6
2018-12-29T04:17:08.078Z,1009.63
2018-12-29T04:18:18.159Z,1009.62
2018-12-29T04:19:27.952Z,1009.66
2018-12-29T04:20:38.016Z,1009.59
2018-12-29T04:21:47.875Z,1009.63
2018-12-29T04:22:57.931Z,1009.68
2018-12-29T04:24:10.001Z,1009.62
2018-12-29T04:25:19.563Z,1009.65
2018-12-29T04:26:29.625Z,1009.65
2018-12-29T04:27:39.691Z,1009.67
2018-12-29T04:28:49.238Z,1009.7
2018-12-29T04:29:59.319Z,1009.66
2018-12-29T04:31:09.400Z,1009.66
2018-12-29T04:32:19.467Z,1009.72
2018-12-29T04:33:29.536Z,1009.78
2018-12-29T04:34:39.683Z,1009.81
2018-12-29T04:35:49.748Z,1009.76
2018-12-29T04:36:59.797Z,1009.76
2018-12-29T04:38:09.872Z,1009.77
2018-12-29T04:39:19.920Z,1009.73
2018-12-29T04:40:29.988Z,1009.76
2018-12-29T04:41:39.792Z,1009.75
2018-12-29T04:42:49.851Z,1009.78
2018-12-29T04:43:59.897Z,1009.84
2018-12-29T04:45:09.969Z,1009.86
2018-12-29T04:46:20.022Z,1009.9
2018-12-29T04:47:29.824Z,1009.84
2018-12-29T04:48:39.622Z,1009.91
2018-12-29T04:49:49.691Z,1009.89
2018-12-29T04:50:59.749Z,1009.92
2018-12-29T04:52:09.783Z,1009.91
2018-12-29T04:53:19.608Z,1009.9
2018-12-29T04:54:29.422Z,1009.86
2018-12-29T04:55:39.235Z,1009.92
2018-12-29T04:56:49.307Z,1009.87
2018-12-29T04:57:59.362Z,1009.95
2018-12-29T04:59:09.408Z,1009.97
2018-12-29T05:00:19.225Z,1010
2018-12-29T05:01:29.032Z,1010.01
2018-12-29T05:02:38.569Z,1010
2018-12-29T05:03:48.629Z,1010.02
2018-12-29T05:04:58.694Z,1010.08
2018-12-29T05:06:08.771Z,1010.1
2018-12-29T05:07:18.575Z,1010.06
2018-12-29T05:08:28.411Z,1010.07
2018-12-29T05:09:38.502Z,1010.1
2018-12-29T05:10:48.574Z,1010.1
2018-12-29T05:11:58.631Z,1010.08
2018-12-29T05:13:08.214Z,1010.12
2018-12-29T05:14:18.015Z,1010.12
2018-12-29T05:15:27.817Z,1010.14
2018-12-29T05:16:37.879Z,1010.17
2018-12-29T05:17:47.964Z,1010.2
2018-12-29T05:18:58.022Z,1010.16
2018-12-29T05:20:08.084Z,1010.15
2018-12-29T05:21:17.908Z,1010.15
2018-12-29T05:22:27.976Z,1010.19
2018-12-29T05:23:38.050Z,1010.21
2018-12-29T05:24:48.106Z,1010.22
2018-12-29T05:25:57.959Z,1010.18
2018-12-29T05:27:07.746Z,1010.24
2018-12-29T05:28:17.808Z,1010.21
2018-12-29T05:29:27.873Z,1010.22
2018-12-29T05:30:37.661Z,1010.23
2018-12-29T05:31:47.712Z,1010.26
2018-12-29T05:32:57.515Z,1010.25
2018-12-29T05:34:07.304Z,1010.22
2018-12-29T05:35:17.376Z,1010.23
2018-12-29T05:36:27.441Z,1010.26
2018-12-29T05:37:37.505Z,1010.25
2018-12-29T05:38:47.310Z,1010.21
2018-12-29T05:39:57.368Z,1010.26
2018-12-29T05:41:07.436Z,1010.23
2018-12-29T05:42:17.001Z,1010.22
2018-12-29T05:43:26.895Z,1010.28
2018-12-29T05:44:36.946Z,1010.19
2018-12-29T05:45:47.014Z,1010.23
2018-12-29T05:46:57.063Z,1010.27
2018-12-29T05:48:06.872Z,1010.22
2018-12-29T05:49:16.931Z,1010.23
2018-12-29T05:50:26.998Z,1010.25
2018-12-29T05:51:36.812Z,1010.24
2018-12-29T05:52:46.867Z,1010.2
2018-12-29T05:53:56.935Z,1010.23
2018-12-29T05:55:06.975Z,1010.19
2018-12-29T05:56:17.838Z,1010.17
2018-12-29T05:57:27.517Z,1010.12
2018-12-29T05:58:37.584Z,1010.12
2018-12-29T05:59:47.673Z,1010.15
2018-12-29T06:00:57.494Z,1010.15
2018-12-29T06:02:07.551Z,1010.17
2018-12-29T06:03:17.343Z,1010.14
2018-12-29T06:04:27.391Z,1010.17
2018-12-29T06:05:37.463Z,1010.14
2018-12-29T06:06:47.531Z,1010.14
2018-12-29T06:07:57.591Z,1010.15
2018-12-29T06:09:07.650Z,1010.17
2018-12-29T06:10:17.728Z,1010.18
2018-12-29T06:11:27.801Z,1010.16
2018-12-29T06:12:37.875Z,1010.18
2018-12-29T06:13:48.284Z,1010.16
2018-12-29T06:14:58.352Z,1010.19
2018-12-29T06:16:08.158Z,1010.22
2018-12-29T06:17:18.226Z,1010.21
2018-12-29T06:18:28.337Z,1010.22
2018-12-29T06:19:38.395Z,1010.22
2018-12-29T06:20:48.461Z,1010.19
2018-12-29T06:21:58.246Z,1010.24
2018-12-29T06:23:08.303Z,1010.22
2018-12-29T06:24:18.362Z,1010.21
2018-12-29T06:25:28.459Z,1010.2
2018-12-29T06:26:38.562Z,1010.18
2018-12-29T06:27:48.376Z,1010.2
2018-12-29T06:28:58.476Z,1010.25
2018-12-29T06:30:08.595Z,1010.27
2018-12-29T06:31:18.651Z,1010.28
2018-12-29T06:32:28.701Z,1010.26
2018-12-29T06:33:38.516Z,1010.29
2018-12-29T06:34:48.566Z,1010.28
2018-12-29T06:35:58.121Z,1010.3
2018-12-29T06:37:07.934Z,1010.25
2018-12-29T06:38:17.984Z,1010.29
2018-12-29T06:39:27.800Z,1010.36
2018-12-29T06:40:37.860Z,1010.34
2018-12-29T06:41:47.930Z,1010.4
2018-12-29T06:42:58.036Z,1010.42
2018-12-29T06:44:08.369Z,1010.38
2018-12-29T06:45:18.436Z,1010.33
2018-12-29T06:46:34.671Z,1010.4
2018-12-29T06:47:45.009Z,1010.33
2018-12-29T06:48:55.091Z,1010.4
2018-12-29T06:50:04.910Z,1010.37
2018-12-29T06:51:14.973Z,1010.38
2018-12-29T06:52:25.042Z,1010.34
2018-12-29T06:53:34.907Z,1010.33
2018-12-29T06:54:44.708Z,1010.29
2018-12-29T06:55:54.782Z,1010.3
2018-12-29T06:57:04.843Z,1010.24
2018-12-29T06:58:14.899Z,1010.25
2018-12-29T06:59:24.989Z,1010.34
2018-12-29T07:00:35.070Z,1010.3
2018-12-29T07:01:45.114Z,1010.33
2018-12-29T07:02:55.192Z,1010.34
2018-12-29T07:04:05.287Z,1010.39
2018-12-29T07:05:15.094Z,1010.41
2018-12-29T07:06:25.172Z,1010.49
2018-12-29T07:07:35.478Z,1010.43
2018-12-29T07:08:45.310Z,1010.38
2018-12-29T07:09:55.091Z,1010.41
2018-12-29T07:11:05.296Z,1010.38
2018-12-29T07:12:14.926Z,1010.39
2018-12-29T07:13:24.995Z,1010.43
2018-12-29T07:14:35.130Z,1010.41
2018-12-29T07:15:45.197Z,1010.43
2018-12-29T07:16:55.923Z,1010.47
2018-12-29T07:18:06.131Z,1010.39
2018-12-29T07:19:15.937Z,1010.41
2018-12-29T07:20:26.023Z,1010.42
2018-12-29T07:21:35.829Z,1010.45
2018-12-29T07:22:45.879Z,1010.41
2018-12-29T07:23:55.960Z,1010.41
2018-12-29T07:25:06.101Z,1010.37
2018-12-29T07:26:16.164Z,1010.42
2018-12-29T07:27:26.219Z,1010.47
2018-12-29T07:28:36.008Z,1010.45
2018-12-29T07:29:45.829Z,1010.45
2018-12-29T07:30:55.628Z,1010.42
2018-12-29T07:32:05.681Z,1010.41
2018-12-29T07:33:15.483Z,1010.34
2018-12-29T07:34:25.542Z,1010.37
2018-12-29T07:35:35.632Z,1010.38
2018-12-29T07:36:45.710Z,1010.38
2018-12-29T07:37:55.249Z,1010.36
2018-12-29T07:39:05.069Z,1010.38
2018-12-29T07:40:15.150Z,1010.35
2018-12-29T07:41:25.212Z,1010.37
2018-12-29T07:42:35.283Z,1010.35
2018-12-29T07:43:45.362Z,1010.31
2018-12-29T07:44:55.443Z,1010.36
2018-12-29T07:46:05.488Z,1010.33
2018-12-29T07:47:15.543Z,1010.38
2018-12-29T07:48:25.352Z,1010.41
2018-12-29T07:49:35.399Z,1010.42
2018-12-29T07:50:45.488Z,1010.46
2018-12-29T07:51:55.409Z,1010.47
2018-12-29T07:53:05.296Z,1010.49
2018-12-29T07:54:15.359Z,1010.51
2018-12-29T07:55:25.445Z,1010.55
2018-12-29T07:56:35.561Z,1010.6
2018-12-29T07:57:45.374Z,1010.59
2018-12-29T07:58:55.435Z,1010.61
2018-12-29T08:00:05.605Z,1010.61
2018-12-29T08:01:16.308Z,1010.6
2018-12-29T08:02:26.379Z,1010.61
2018-12-29T08:03:36.450Z,1010.57
2018-12-29T08:04:46.579Z,1010.61
2018-12-29T08:05:56.647Z,1010.6
2018-12-29T08:07:07.945Z,1010.65
2018-12-29T08:08:17.998Z,1010.65
2018-12-29T08:09:28.075Z,1010.58
2018-12-29T08:10:38.850Z,1010.59
2018-12-29T08:11:49.048Z,1010.56
2018-12-29T08:12:58.851Z,1010.53
2018-12-29T08:14:08.654Z,1010.54
2018-12-29T08:15:18.725Z,1010.57
2018-12-29T08:16:28.789Z,1010.56
2018-12-29T08:17:38.334Z,1010.56
2018-12-29T08:18:48.409Z,1010.56
2018-12-29T08:19:58.478Z,1010.49
2018-12-29T08:21:08.551Z,1010.44
2018-12-29T08:22:19.289Z,1010.44
2018-12-29T08:23:29.494Z,1010.46
2018-12-29T08:24:39.332Z,1010.51
2018-12-29T08:25:49.395Z,1010.52
2018-12-29T08:26:58.960Z,1010.5
2018-12-29T08:28:09.031Z,1010.6
2018-12-29T08:29:19.074Z,1010.52
2018-12-29T08:30:29.162Z,1010.59
2018-12-29T08:31:39.244Z,1010.61
2018-12-29T08:32:49.313Z,1010.65
2018-12-29T08:33:58.867Z,1010.62
2018-12-29T08:35:09.988Z,1010.63
2018-12-29T08:36:19.793Z,1010.63
2018-12-29T08:37:29.618Z,1010.67
2018-12-29T08:38:39.709Z,1010.72
2018-12-29T08:39:49.774Z,1010.73
2018-12-29T08:40:59.586Z,1010.8
2018-12-29T08:42:09.658Z,1010.85
2018-12-29T08:43:19.467Z,1010.81
2018-12-29T08:44:29.551Z,1010.85
2018-12-29T08:45:39.652Z,1010.82
2018-12-29T08:46:49.729Z,1010.88
2018-12-29T08:48:05.106Z,1010.91
2018-12-29T08:49:15.167Z,1010.9
2018-12-29T08:50:25.248Z,1010.93
2018-12-29T08:51:35.326Z,1010.97
2018-12-29T08:52:45.393Z,1010.99
2018-12-29T08:53:55.467Z,1011
2018-12-29T08:55:06.587Z,1010.98
2018-12-29T08:56:16.646Z,1010.93
2018-12-29T08:57:26.726Z,1010.98
2018-12-29T08:58:36.794Z,1010.98
2018-12-29T08:59:46.922Z,1010.95
2018-12-29T09:00:56.977Z,1010.98
2018-12-29T09:02:07.058Z,1011.05
2018-12-29T09:03:17.133Z,1011.05
2018-12-29T09:04:27.615Z,1011
2018-12-29T09:05:37.407Z,1011.02
2018-12-29T09:06:47.226Z,1011.03
2018-12-29T09:07:57.148Z,1011.05
2018-12-29T09:09:07.216Z,1011.03
2018-12-29T09:10:17.297Z,1011.02
2018-12-29T09:11:27.143Z,1011.03
2018-12-29T09:12:37.211Z,1011.05
2018-12-29T09:13:47.132Z,1011.07
2018-12-29T09:14:56.998Z,1011.06
2018-12-29T09:16:07.083Z,1011.02
2018-12-29T09:17:17.139Z,1010.99
2018-12-29T09:18:27.216Z,1010.98
2018-12-29T09:19:37.266Z,1010.98
2018-12-29T09:20:47.334Z,1011.03
2018-12-29T09:21:57.403Z,1011.02
2018-12-29T09:23:07.201Z,1011.01
2018-12-29T09:24:17.010Z,1010.97
2018-12-29T09:25:27.098Z,1010.97
2018-12-29T09:26:36.930Z,1011.01
2018-12-29T09:27:46.995Z,1010.94
2018-12-29T09:28:57.069Z,1010.93
2018-12-29T09:30:07.771Z,1010.89
2018-12-29T09:31:18.230Z,1010.95
2018-12-29T09:32:28.415Z,1010.89
2018-12-29T09:33:38.511Z,1010.88
2018-12-29T09:34:48.342Z,1010.88
2018-12-29T09:35:58.429Z,1010.88
2018-12-29T09:37:08.589Z,1010.9
2018-12-29T09:38:18.645Z,1010.9
2018-12-29T09:39:28.715Z,1010.84
2018-12-29T09:40:38.854Z,1010.86
2018-12-29T09:41:48.927Z,1010.85
2018-12-29T09:42:58.918Z,1010.86
2018-12-29T09:44:09.051Z,1010.91
2018-12-29T09:45:19.398Z,1010.88
2018-12-29T09:46:29.455Z,1010.86
2018-12-29T09:47:38.997Z,1010.83
2018-12-29T09:48:49.057Z,1010.88
2018-12-29T09:49:59.149Z,1010.8
2018-12-29T09:51:08.950Z,1010.82
2018-12-29T09:52:19.041Z,1010.84
2018-12-29T09:53:29.105Z,1010.8
2018-12-29T09:54:39.185Z,1010.82
2018-12-29T09:55:48.988Z,1010.85
2018-12-29T09:56:59.063Z,1010.84
2018-12-29T09:58:09.136Z,1010.87
2018-12-29T09:59:18.978Z,1010.86
2018-12-29T10:00:28.825Z,1010.9
2018-12-29T10:01:38.887Z,1010.92
2018-12-29T10:02:48.966Z,1010.86
2018-12-29T10:03:59.048Z,1010.93
2018-12-29T10:05:09.453Z,1010.95
2018-12-29T10:06:19.342Z,1010.96
2018-12-29T10:07:29.416Z,1010.98
2018-12-29T10:08:39.220Z,1010.9
2018-12-29T10:09:49.290Z,1010.93
2018-12-29T10:10:59.358Z,1010.9
2018-12-29T10:12:10.086Z,1010.95
2018-12-29T10:13:20.132Z,1010.93
2018-12-29T10:14:30.180Z,1010.92
2018-12-29T10:15:40.270Z,1010.95
2018-12-29T10:16:50.344Z,1010.93
2018-12-29T10:18:00.467Z,1010.94
2018-12-29T10:19:10.032Z,1010.96
2018-12-29T10:20:20.117Z,1010.93
2018-12-29T10:21:30.237Z,1010.96
2018-12-29T10:22:40.061Z,1010.94
2018-12-29T10:23:50.150Z,1010.92
2018-12-29T10:25:00.631Z,1010.95
2018-12-29T10:26:10.705Z,1010.85
2018-12-29T10:27:20.771Z,1010.87
2018-12-29T10:28:30.826Z,1010.87
2018-12-29T10:29:40.726Z,1010.84
2018-12-29T10:30:50.824Z,1010.82
2018-12-29T10:32:00.905Z,1010.82
2018-12-29T10:33:10.966Z,1010.8
2018-12-29T10:34:21.067Z,1010.76
2018-12-29T10:35:31.180Z,1010.77
2018-12-29T10:36:41.059Z,1010.76
2018-12-29T10:37:51.140Z,1010.74
2018-12-29T10:39:00.990Z,1010.74
2018-12-29T10:40:11.075Z,1010.66
2018-12-29T10:41:21.233Z,1010.66
2018-12-29T10:42:31.292Z,1010.7
2018-12-29T10:43:41.348Z,1010.68
2018-12-29T10:44:51.179Z,1010.66
2018-12-29T10:46:00.987Z,1010.63
2018-12-29T10:47:10.807Z,1010.64
2018-12-29T10:48:20.877Z,1010.59
2018-12-29T10:49:30.966Z,1010.58
2018-12-29T10:50:41.066Z,1010.49
2018-12-29T10:51:51.170Z,1010.48
2018-12-29T10:53:01.501Z,1010.48
2018-12-29T10:54:11.580Z,1010.48
2018-12-29T10:55:21.644Z,1010.39
2018-12-29T10:56:31.490Z,1010.44
2018-12-29T10:57:41.315Z,1010.43
2018-12-29T10:58:51.401Z,1010.38
2018-12-29T11:00:01.468Z,1010.38
2018-12-29T11:01:13.068Z,1010.39
2018-12-29T11:02:23.133Z,1010.34
2018-12-29T11:03:32.953Z,1010.3
2018-12-29T11:04:43.024Z,1010.33
2018-12-29T11:05:53.092Z,1010.27
2018-12-29T11:07:03.176Z,1010.27
2018-12-29T11:08:13.272Z,1010.3
2018-12-29T11:09:23.431Z,1010.3
2018-12-29T11:10:33.491Z,1010.29
2018-12-29T11:11:43.568Z,1010.29
2018-12-29T11:12:53.667Z,1010.27
2018-12-29T11:14:03.815Z,1010.26
2018-12-29T11:15:13.882Z,1010.25
2018-12-29T11:16:24.424Z,1010.22
2018-12-29T11:17:41.956Z,1010.2
2018-12-29T11:18:52.420Z,1010.19
2018-12-29T11:20:02.251Z,1010.22
2018-12-29T11:21:12.340Z,1010.18
2018-12-29T11:22:22.449Z,1010.19
2018-12-29T11:23:32.264Z,1010.19
2018-12-29T11:24:42.098Z,1010.15
2018-12-29T11:25:52.183Z,1010.13
2018-12-29T11:27:02.020Z,1010.19
2018-12-29T11:28:12.096Z,1010.17
2018-12-29T11:29:22.190Z,1010.17
2018-12-29T11:30:32.290Z,1010.16
2018-12-29T11:31:42.419Z,1010.16
2018-12-29T11:32:52.559Z,1010.16
2018-12-29T11:34:02.729Z,1010.17
2018-12-29T11:35:12.842Z,1010.17
2018-12-29T11:36:29.461Z,1010.21
2018-12-29T11:37:39.530Z,1010.17
2018-12-29T11:38:49.602Z,1010.19
2018-12-29T11:39:59.683Z,1010.17
2018-12-29T11:41:09.530Z,1010.15
2018-12-29T11:42:19.612Z,1010.15
2018-12-29T11:43:29.701Z,1010.15
2018-12-29T11:44:39.775Z,1010.16
2018-12-29T11:45:49.625Z,1010.07
2018-12-29T11:46:59.723Z,1010.06
2018-12-29T11:48:09.548Z,1010.13
2018-12-29T11:49:19.657Z,1010.09
2018-12-29T11:50:29.798Z,1010.11
2018-12-29T11:51:39.955Z,1010.17
2018-12-29T11:52:50.084Z,1010.12
2018-12-29T11:53:59.973Z,1010.09
2018-12-29T11:55:10.074Z,1010.18
2018-12-29T11:56:20.194Z,1010.18
2018-12-29T11:57:30.365Z,1010.32
2018-12-29T11:58:40.491Z,1010.17
2018-12-29T11:59:50.377Z,1010.23
2018-12-29T12:01:01.226Z,1010.23
2018-12-29T12:02:11.822Z,1010.17
2018-12-29T12:03:29.539Z,1010.21
2018-12-29T12:04:39.755Z,1010.23
2018-12-29T12:05:49.627Z,1010.21
2018-12-29T12:06:59.743Z,1010.23
2018-12-29T12:08:09.999Z,1010.2
2018-12-29T12:09:20.135Z,1010.25
2018-12-29T12:10:30.949Z,1010.26
2018-12-29T12:11:41.080Z,1010.29
2018-12-29T12:12:51.238Z,1010.19
2018-12-29T12:14:00.926Z,1010.21
2018-12-29T12:15:11.055Z,1010.2
2018-12-29T12:16:21.225Z,1010.19
2018-12-29T12:17:31.371Z,1010.15
2018-12-29T12:18:41.533Z,1010.19
2018-12-29T12:19:51.645Z,1010.19
2018-12-29T12:21:01.859Z,1010.2
2018-12-29T12:22:11.989Z,1010.16
2018-12-29T12:23:22.122Z,1010.16
2018-12-29T12:24:32.260Z,1010.23
2018-12-29T12:25:42.439Z,1010.21
2018-12-29T12:26:53.841Z,1010.21
2018-12-29T12:28:03.957Z,1010.23
2018-12-29T12:29:14.119Z,1010.21
2018-12-29T12:30:24.964Z,1010.28
2018-12-29T12:31:35.140Z,1010.31
2018-12-29T12:32:46.702Z,1010.28
2018-12-29T12:33:56.622Z,1010.24
2018-12-29T12:35:08.022Z,1010.27
2018-12-29T12:36:18.170Z,1010.22
2018-12-29T12:37:28.298Z,1010.18
2018-12-29T12:38:38.866Z,1010.23
2018-12-29T12:39:48.816Z,1010.3
2018-12-29T12:40:58.986Z,1010.29
2018-12-29T12:42:08.864Z,1010.3
2018-12-29T12:43:19.034Z,1010.25
2018-12-29T12:44:30.473Z,1010.23
2018-12-29T12:45:40.958Z,1010.2
2018-12-29T12:46:51.084Z,1010.23
2018-12-29T12:48:05.067Z,1010.28
2018-12-29T12:49:15.476Z,1010.3
2018-12-29T12:50:25.695Z,1010.25
2018-12-29T12:51:35.847Z,1010.35
2018-12-29T12:52:46.618Z,1010.26
2018-12-29T12:53:56.550Z,1010.35
2018-12-29T12:55:06.494Z,1010.38
2018-12-29T12:56:16.582Z,1010.39
2018-12-29T12:57:27.057Z,1010.41
2018-12-29T12:58:38.344Z,1010.36
2018-12-29T12:59:49.911Z,1010.41
2018-12-29T13:01:00.840Z,1010.37
2018-12-29T13:02:11.494Z,1010.39
2018-12-29T13:03:22.045Z,1010.45
2018-12-29T13:04:32.547Z,1010.42
2018-12-29T13:05:42.686Z,1010.52
2018-12-29T13:06:52.792Z,1010.46
2018-12-29T13:08:02.961Z,1010.51
2018-12-29T13:09:13.068Z,1010.52
2018-12-29T13:10:23.257Z,1010.65
2018-12-29T13:11:33.118Z,1010.53
2018-12-29T13:12:43.296Z,1010.52
2018-12-29T13:13:53.128Z,1010.59
2018-12-29T13:15:03.018Z,1010.59
2018-12-29T13:16:12.636Z,1010.58
2018-12-29T13:17:22.799Z,1010.68
2018-12-29T13:18:32.934Z,1010.56
2018-12-29T13:19:42.561Z,1010.68
2018-12-29T13:20:52.699Z,1010.59
2018-12-29T13:22:03.563Z,1010.62
2018-12-29T13:23:13.708Z,1010.58
2018-12-29T13:24:23.599Z,1010.59
2018-12-29T13:25:33.489Z,1010.59
2018-12-29T13:26:43.623Z,1010.57
2018-12-29T13:27:53.765Z,1010.51
2018-12-29T13:29:03.907Z,1010.59
2018-12-29T13:30:14.081Z,1010.56
2018-12-29T13:31:25.062Z,1010.61
2018-12-29T13:32:35.852Z,1010.55
2018-12-29T13:33:46.541Z,1010.63
2018-12-29T13:34:56.692Z,1010.6
2018-12-29T13:36:06.837Z,1010.48
2018-12-29T13:37:17.111Z,1010.56
2018-12-29T13:38:27.021Z,1010.53
2018-12-29T13:39:37.155Z,1010.47
2018-12-29T13:40:47.274Z,1010.46
2018-12-29T13:41:57.157Z,1010.47
2018-12-29T13:43:07.314Z,1010.55
2018-12-29T13:44:17.494Z,1010.6
2018-12-29T13:45:27.599Z,1010.52
2018-12-29T13:46:37.736Z,1010.42
2018-12-29T13:47:47.852Z,1010.49
2018-12-29T13:48:57.953Z,1010.47
2018-12-29T13:50:10.094Z,1010.36
2018-12-29T13:51:20.205Z,1010.39
2018-12-29T13:52:30.299Z,1010.35
2018-12-29T13:53:40.428Z,1010.42
2018-12-29T13:54:50.320Z,1010.38
2018-12-29T13:56:00.427Z,1010.35
2018-12-29T13:57:10.269Z,1010.37
2018-12-29T13:58:20.433Z,1010.42
2018-12-29T13:59:30.877Z,1010.33
2018-12-29T14:00:41.641Z,1010.35
2018-12-29T14:01:53.178Z,1010.31
2018-12-29T14:03:03.167Z,1010.34
2018-12-29T14:04:13.300Z,1010.36
2018-12-29T14:05:23.445Z,1010.4
2018-12-29T14:06:33.627Z,1010.36
2018-12-29T14:07:43.767Z,1010.41
2018-12-29T14:08:53.648Z,1010.41
2018-12-29T14:10:04.030Z,1010.42
2018-12-29T14:11:14.164Z,1010.45
2018-12-29T14:12:24.294Z,1010.42
2018-12-29T14:13:34.160Z,1010.4
2018-12-29T14:14:44.290Z,1010.32
2018-12-29T14:15:54.425Z,1010.41
2018-12-29T14:17:04.305Z,1010.44
2018-12-29T14:18:14.472Z,1010.44
2018-12-29T14:19:31.022Z,1010.56
2018-12-29T14:20:41.201Z,1010.45
2018-12-29T14:21:51.036Z,1010.53
2018-12-29T14:23:00.675Z,1010.47
2018-12-29T14:24:11.029Z,1010.47
2018-12-29T14:25:22.002Z,1010.45
2018-12-29T14:26:32.430Z,1010.37
2018-12-29T14:27:43.179Z,1010.42
2018-12-29T14:28:53.444Z,1010.4
2018-12-29T14:30:03.570Z,1010.42
2018-12-29T14:31:13.400Z,1010.37
2018-12-29T14:32:23.540Z,1010.4
2018-12-29T14:33:33.680Z,1010.39
2018-12-29T14:34:43.786Z,1010.37
2018-12-29T14:35:53.996Z,1010.35
2018-12-29T14:37:03.840Z,1010.41
2018-12-29T14:38:13.720Z,1010.52
2018-12-29T14:39:23.845Z,1010.43
2018-12-29T14:40:33.990Z,1010.34
2018-12-29T14:41:44.114Z,1010.29
2018-12-29T14:42:55.870Z,1010.42